Diaz, Arkansas
Current Conditions -  °F | °C
As of 8:56 PM on Saturday 25 Oct 2014 (Local Time) from KM19 Reporting Station
Clear Clear  
Wind Chill: 69°   Ceiling: Unl
Heat Index: 69°   Visibility: 10mi
Dew Point: 63°   Wind: 5mph
Humidity: 81%   Direction: 210°SSW
Pressure: 30.03"   Gusts: NA
Location:  35.64°N, 91.27°W
Report Text: KM19 260156Z AUTO 21004KT 10SM CLR 21/17 A3003 RMK AO2 T02050172 SLP166
Loading
Personal Weather Stations






























Interactive Weather Map New forecast layout! Learn more

10-Day Weather Forecast

Advertisements
Track Severe Weather on mobile